createdAt,value
2018-09-24T00:09:06.707Z,81.94
2018-09-24T00:24:39.878Z,81.16
2018-09-24T00:40:13.072Z,81.12
2018-09-24T00:55:47.331Z,81.47
2018-09-24T01:11:21.361Z,82.88
2018-09-24T01:26:54.683Z,84.57
2018-09-24T01:42:27.503Z,86.66
2018-09-24T01:58:00.745Z,87.09
2018-09-24T02:13:34.696Z,88.97
2018-09-24T02:29:07.595Z,88.42
2018-09-24T02:44:41.105Z,88.26
2018-09-24T03:00:16.010Z,90.98
2018-09-24T03:16:00.174Z,91.00
2018-09-24T03:31:32.969Z,91.44
2018-09-24T03:47:07.021Z,92.25
2018-09-24T04:02:40.973Z,92.70
2018-09-24T04:18:20.338Z,94.17
2018-09-24T04:34:00.932Z,91.83
2018-09-24T04:49:40.652Z,83.98
2018-09-24T05:05:23.879Z,74.08
2018-09-24T05:21:03.389Z,64.77
2018-09-24T05:36:42.764Z,57.45
2018-09-24T05:52:21.784Z,49.26
2018-09-24T06:08:01.221Z,45.96
2018-09-24T06:23:40.244Z,45.49
2018-09-24T06:39:19.324Z,42.16
2018-09-24T06:54:58.545Z,39.93
2018-09-24T07:10:38.263Z,40.72
2018-09-24T07:26:17.523Z,39.54
2018-09-24T07:41:56.460Z,37.36
2018-09-24T07:57:35.412Z,40.79
2018-09-24T08:13:14.795Z,39.36
2018-09-24T08:28:54.493Z,35.64
2018-09-24T08:44:33.392Z,35.80
2018-09-24T09:00:12.389Z,32.66
2018-09-24T09:15:56.710Z,31.89
2018-09-24T09:31:35.745Z,32.53
2018-09-24T09:47:16.235Z,28.52
2018-09-24T10:02:56.067Z,23.34
2018-09-24T10:18:36.341Z,24.86
2018-09-24T10:34:15.772Z,23.61
2018-09-24T10:49:55.653Z,24.46
2018-09-24T11:05:34.863Z,23.25
2018-09-24T11:21:14.009Z,23.67
2018-09-24T11:36:54.080Z,22.79
2018-09-24T11:52:32.967Z,32.01
2018-09-24T12:08:12.197Z,43.05
2018-09-24T12:23:51.968Z,45.76
2018-09-24T12:39:31.348Z,48.22
2018-09-24T12:55:11.223Z,48.70
2018-09-24T13:10:50.951Z,55.58
2018-09-24T13:26:30.181Z,58.23
2018-09-24T13:42:09.232Z,59.01
2018-09-24T13:57:48.993Z,60.85
2018-09-24T14:13:28.297Z,62.98
2018-09-24T14:29:08.054Z,64.44
2018-09-24T14:44:47.082Z,63.95
2018-09-24T15:00:26.425Z,66.15
2018-09-24T15:16:06.041Z,66.83
2018-09-24T15:31:45.727Z,67.30
2018-09-24T15:47:24.642Z,68.13
2018-09-24T16:03:03.785Z,69.71
2018-09-24T16:18:42.887Z,70.15
2018-09-24T16:34:22.591Z,72.04
2018-09-24T16:50:01.784Z,74.00
2018-09-24T17:05:41.814Z,73.35
2018-09-24T17:21:22.747Z,73.10
2018-09-24T17:37:01.494Z,75.50
2018-09-24T17:52:40.287Z,76.05
2018-09-24T18:08:19.566Z,75.92
2018-09-24T18:23:59.231Z,75.82
2018-09-24T18:39:38.258Z,76.45
2018-09-24T18:55:17.113Z,76.61
2018-09-24T19:10:56.123Z,76.80
2018-09-24T19:26:35.435Z,76.05
2018-09-24T19:42:14.512Z,76.13
2018-09-24T19:57:53.535Z,75.14
2018-09-24T20:13:32.446Z,75.12
2018-09-24T20:29:11.213Z,84.18
2018-09-24T20:44:50.263Z,83.85
2018-09-24T21:00:29.966Z,86.93
2018-09-24T21:16:09.084Z,85.59
2018-09-24T21:31:49.649Z,83.91
2018-09-24T21:47:28.670Z,82.90
2018-09-24T22:03:07.601Z,82.70
2018-09-24T22:18:47.990Z,82.90
2018-09-24T22:34:28.547Z,84.55
2018-09-24T22:50:07.539Z,82.69
2018-09-24T23:05:46.508Z,80.71
2018-09-24T23:21:25.729Z,79.81
2018-09-24T23:37:04.844Z,80.00
2018-09-24T23:52:43.583Z,79.55
